createdAt,value
2019-06-26T00:02:01.684Z,11.75
2019-06-26T00:04:27.850Z,11.45
2019-06-26T00:06:53.912Z,12.05
2019-06-26T00:09:19.914Z,11.12
2019-06-26T00:11:45.936Z,11.33
2019-06-26T00:14:11.943Z,11.80
2019-06-26T00:16:37.954Z,11.25
2019-06-26T00:19:03.968Z,12.20
2019-06-26T00:21:30.113Z,11.05
2019-06-26T00:23:56.017Z,11.15
2019-06-26T00:26:22.123Z,11.80
2019-06-26T00:28:48.281Z,11.88
2019-06-26T00:31:14.297Z,11.40
2019-06-26T00:33:40.413Z,10.70
2019-06-26T00:36:06.554Z,11.40
2019-06-26T00:38:32.674Z,12.80
2019-06-26T00:40:58.688Z,11.93
2019-06-26T00:43:24.692Z,12.40
2019-06-26T00:45:50.990Z,12.55
2019-06-26T00:48:17.142Z,12.05
2019-06-26T00:50:43.167Z,10.65
2019-06-26T00:53:09.076Z,12.82
2019-06-26T00:55:35.194Z,13.03
2019-06-26T00:58:01.310Z,14.25
2019-06-26T01:00:31.023Z,11.95
2019-06-26T01:02:57.035Z,12.93
2019-06-26T01:05:23.120Z,12.93
2019-06-26T01:07:49.219Z,12.37
2019-06-26T01:10:15.755Z,12.07
2019-06-26T01:12:41.846Z,11.95
2019-06-26T01:15:08.579Z,11.97
2019-06-26T01:17:34.710Z,11.43
2019-06-26T01:20:00.824Z,12.75
2019-06-26T01:22:26.982Z,13.53
2019-06-26T01:24:53.091Z,13.68
2019-06-26T01:27:19.240Z,12.23
2019-06-26T01:29:45.432Z,13.40
2019-06-26T01:32:11.540Z,11.00
2019-06-26T01:34:37.569Z,11.93
2019-06-26T01:37:03.670Z,13.15
2019-06-26T01:39:29.670Z,14.25
2019-06-26T01:41:55.744Z,13.75
2019-06-26T01:44:21.681Z,13.03
2019-06-26T01:46:47.690Z,12.60
2019-06-26T01:49:13.823Z,13.18
2019-06-26T01:51:39.873Z,13.50
2019-06-26T01:54:06.005Z,11.65
2019-06-26T01:56:32.026Z,12.20
2019-06-26T01:58:58.195Z,12.45
2019-06-26T02:01:24.355Z,13.00
2019-06-26T02:03:50.463Z,13.75
2019-06-26T02:06:16.498Z,13.05
2019-06-26T02:08:43.221Z,12.55
2019-06-26T02:11:09.214Z,12.20
2019-06-26T02:13:35.221Z,11.57
2019-06-26T02:16:01.323Z,11.48
2019-06-26T02:18:32.128Z,14.23
2019-06-26T02:20:58.303Z,13.25
2019-06-26T02:23:24.345Z,12.60
2019-06-26T02:25:50.350Z,13.40
2019-06-26T02:28:16.463Z,13.35
2019-06-26T02:30:42.580Z,13.22
2019-06-26T02:33:08.916Z,12.45
2019-06-26T02:35:34.924Z,12.68
2019-06-26T02:38:00.963Z,12.58
2019-06-26T02:40:27.075Z,11.95
2019-06-26T02:42:53.181Z,11.97
2019-06-26T02:45:19.293Z,11.95
2019-06-26T02:47:45.290Z,11.28
2019-06-26T02:50:11.418Z,11.75
2019-06-26T02:52:37.530Z,13.80
2019-06-26T02:55:06.142Z,13.20
2019-06-26T02:57:32.359Z,11.38
2019-06-26T02:59:58.631Z,12.20
2019-06-26T03:02:24.735Z,10.95
2019-06-26T03:04:50.760Z,11.83
2019-06-26T03:07:16.873Z,12.60
2019-06-26T03:09:42.996Z,13.35
2019-06-26T03:12:08.995Z,11.18
2019-06-26T03:14:35.175Z,10.82
2019-06-26T03:17:01.192Z,11.48
2019-06-26T03:19:27.210Z,11.83
2019-06-26T03:21:53.247Z,10.18
2019-06-26T03:24:19.153Z,11.53
2019-06-26T03:26:45.385Z,12.73
2019-06-26T03:29:11.423Z,13.08
2019-06-26T03:31:37.601Z,12.28
2019-06-26T03:34:03.644Z,12.50
2019-06-26T03:36:29.651Z,14.28
2019-06-26T03:38:55.655Z,13.78
2019-06-26T03:41:21.766Z,15.03
2019-06-26T03:43:47.679Z,14.68
2019-06-26T03:46:13.686Z,15.45
2019-06-26T03:48:39.791Z,14.35
2019-06-26T03:51:05.795Z,14.70
2019-06-26T03:53:31.911Z,14.33
2019-06-26T03:55:58.141Z,14.63
2019-06-26T03:58:24.141Z,13.93
2019-06-26T04:00:50.254Z,14.55
2019-06-26T04:03:16.400Z,14.65
2019-06-26T04:05:42.548Z,14.65
2019-06-26T04:08:08.484Z,14.35
2019-06-26T04:10:35.251Z,15.72
2019-06-26T04:13:01.358Z,15.53
2019-06-26T04:15:40.869Z,15.68
2019-06-26T04:17:55.412Z,15.10
2019-06-26T04:20:21.421Z,14.93
2019-06-26T04:22:47.804Z,14.73
2019-06-26T04:25:14.074Z,14.10
2019-06-26T04:27:40.129Z,15.70
2019-06-26T04:30:09.953Z,15.25
2019-06-26T04:32:36.372Z,16.05
2019-06-26T04:35:03.621Z,15.55
2019-06-26T04:37:29.816Z,16.07
2019-06-26T04:39:55.829Z,15.53
2019-06-26T04:42:21.864Z,15.03
2019-06-26T04:44:47.778Z,17.20
2019-06-26T04:47:13.797Z,16.10
2019-06-26T04:49:39.695Z,16.62
2019-06-26T04:52:05.810Z,17.37
2019-06-26T04:54:31.920Z,17.12
2019-06-26T04:56:58.050Z,17.17
2019-06-26T04:59:24.056Z,16.32
2019-06-26T05:01:50.073Z,16.82
2019-06-26T05:04:16.181Z,17.10
2019-06-26T05:06:42.198Z,17.23
2019-06-26T05:09:08.494Z,17.52
2019-06-26T05:11:34.652Z,17.15
2019-06-26T05:14:00.851Z,16.90
2019-06-26T05:16:26.989Z,18.92
2019-06-26T05:18:53.002Z,19.42
2019-06-26T05:21:19.139Z,18.48
2019-06-26T05:23:45.350Z,18.17
2019-06-26T05:26:11.469Z,18.57
2019-06-26T05:28:37.588Z,17.82
2019-06-26T05:31:03.699Z,17.45
2019-06-26T05:33:29.727Z,17.70
2019-06-26T05:35:55.855Z,18.42
2019-06-26T05:38:21.763Z,19.25
2019-06-26T05:40:47.904Z,17.67
2019-06-26T05:43:13.938Z,18.95
2019-06-26T05:45:40.060Z,19.80
2019-06-26T05:48:06.439Z,18.48
2019-06-26T05:50:32.564Z,19.23
2019-06-26T05:52:58.684Z,20.40
2019-06-26T05:55:24.817Z,22.48
2019-06-26T05:57:53.375Z,22.32
2019-06-26T06:00:19.691Z,21.95
2019-06-26T06:02:45.850Z,22.90
2019-06-26T06:05:12.567Z,21.07
2019-06-26T06:07:38.667Z,19.25
2019-06-26T06:10:05.952Z,18.45
2019-06-26T06:12:32.425Z,19.05
2019-06-26T06:14:58.970Z,17.42
2019-06-26T06:17:26.233Z,17.40
2019-06-26T06:19:52.810Z,18.15
2019-06-26T06:22:19.016Z,18.82
2019-06-26T06:24:45.201Z,18.62
2019-06-26T06:27:11.232Z,18.82
2019-06-26T06:29:37.397Z,17.85
2019-06-26T06:32:05.036Z,16.87
2019-06-26T06:34:31.181Z,17.82
2019-06-26T06:36:57.140Z,17.73
2019-06-26T06:39:23.275Z,15.45
2019-06-26T06:41:49.291Z,16.60
2019-06-26T06:44:15.427Z,17.67
2019-06-26T06:46:42.362Z,16.60
2019-06-26T06:49:08.477Z,16.77
2019-06-26T06:51:36.946Z,16.87
2019-06-26T06:54:03.370Z,16.75
2019-06-26T06:56:29.290Z,16.15
2019-06-26T06:58:55.289Z,16.32
2019-06-26T07:01:21.427Z,15.35
2019-06-26T07:03:47.545Z,16.40
2019-06-26T07:06:13.671Z,16.27
2019-06-26T07:08:39.823Z,15.65
2019-06-26T07:11:05.831Z,17.12
2019-06-26T07:13:31.944Z,15.32
2019-06-26T07:15:58.058Z,15.90
2019-06-26T07:18:24.206Z,16.20
2019-06-26T07:20:50.335Z,16.15
2019-06-26T07:23:16.333Z,15.43
2019-06-26T07:25:42.438Z,15.60
2019-06-26T07:28:08.577Z,16.70
2019-06-26T07:30:34.573Z,15.10
2019-06-26T07:33:00.489Z,15.45
2019-06-26T07:35:26.510Z,15.43
2019-06-26T07:37:52.625Z,14.93
2019-06-26T07:40:19.049Z,14.25
2019-06-26T07:42:45.071Z,12.85
2019-06-26T07:45:11.531Z,14.05
2019-06-26T07:47:43.552Z,13.88
2019-06-26T07:50:06.256Z,13.95
2019-06-26T07:52:32.414Z,14.33
2019-06-26T07:54:58.728Z,12.35
2019-06-26T07:57:24.793Z,11.88
2019-06-26T07:59:50.808Z,11.75
2019-06-26T08:02:16.870Z,11.50
2019-06-26T08:04:43.002Z,13.43
2019-06-26T08:07:09.151Z,11.40
2019-06-26T08:09:35.175Z,12.63
2019-06-26T08:12:01.338Z,12.15
2019-06-26T08:14:27.263Z,12.45
2019-06-26T08:16:53.418Z,12.50
2019-06-26T08:19:19.439Z,12.15
2019-06-26T08:21:46.734Z,12.28
2019-06-26T08:24:13.057Z,13.30
2019-06-26T08:26:39.073Z,13.32
2019-06-26T08:29:05.175Z,13.62
2019-06-26T08:31:31.293Z,14.38
2019-06-26T08:33:57.238Z,13.85
2019-06-26T08:36:23.353Z,14.93
2019-06-26T08:38:49.394Z,13.88
2019-06-26T08:41:15.458Z,13.68
2019-06-26T08:43:41.719Z,14.38
2019-06-26T08:46:07.753Z,12.60
2019-06-26T08:48:39.410Z,14.50
2019-06-26T08:51:01.782Z,13.73
2019-06-26T08:53:27.903Z,13.68
2019-06-26T08:55:54.030Z,12.98
2019-06-26T08:58:20.073Z,14.00
2019-06-26T09:00:46.256Z,13.18
2019-06-26T09:03:12.345Z,13.40
2019-06-26T09:05:48.000Z,13.28
2019-06-26T09:08:06.324Z,13.80
2019-06-26T09:10:32.418Z,13.38
2019-06-26T09:12:58.557Z,15.65
2019-06-26T09:15:24.666Z,13.50
2019-06-26T09:17:50.690Z,13.50
2019-06-26T09:20:32.489Z,13.68
2019-06-26T09:22:58.668Z,13.62
2019-06-26T09:25:24.824Z,12.75
2019-06-26T09:27:50.931Z,13.20
2019-06-26T09:30:17.093Z,12.25
2019-06-26T09:32:43.116Z,12.58
2019-06-26T09:35:09.353Z,11.63
2019-06-26T09:37:35.370Z,12.35
2019-06-26T09:40:01.549Z,12.63
2019-06-26T09:42:27.570Z,10.20
2019-06-26T09:44:53.581Z,10.60
2019-06-26T09:47:19.662Z,9.73
2019-06-26T09:49:45.745Z,10.60
2019-06-26T09:52:11.886Z,10.65
2019-06-26T09:54:38.014Z,11.12
2019-06-26T09:57:04.122Z,13.03
2019-06-26T09:59:30.279Z,15.18
2019-06-26T10:01:56.189Z,12.73
2019-06-26T10:04:22.215Z,12.25
2019-06-26T10:06:48.350Z,14.35
2019-06-26T10:09:14.359Z,14.13
2019-06-26T10:11:40.388Z,12.88
2019-06-26T10:14:06.672Z,15.15
2019-06-26T10:16:32.818Z,12.33
2019-06-26T10:19:09.435Z,12.98
2019-06-26T10:21:26.859Z,13.70
2019-06-26T10:23:52.777Z,11.93
2019-06-26T10:26:18.890Z,12.18
2019-06-26T10:28:45.047Z,12.05
2019-06-26T10:31:11.330Z,10.70
2019-06-26T10:33:37.452Z,10.93
2019-06-26T10:36:03.584Z,10.25
2019-06-26T10:38:29.543Z,7.95
2019-06-26T10:40:55.712Z,11.50
2019-06-26T10:43:21.822Z,12.33
2019-06-26T10:45:47.863Z,9.90
2019-06-26T10:48:13.866Z,10.10
2019-06-26T10:50:49.429Z,7.60
2019-06-26T10:53:08.022Z,9.58
2019-06-26T10:55:34.166Z,9.13
2019-06-26T10:58:00.178Z,10.03
2019-06-26T11:00:27.552Z,11.22
2019-06-26T11:02:53.579Z,10.38
2019-06-26T11:05:19.977Z,11.40
2019-06-26T11:07:46.098Z,11.78
2019-06-26T11:10:12.739Z,11.35
2019-06-26T11:12:38.923Z,10.28
2019-06-26T11:15:06.365Z,7.28
2019-06-26T11:17:32.483Z,8.48
2019-06-26T11:19:58.532Z,9.53
2019-06-26T11:22:24.644Z,9.13
2019-06-26T11:24:50.710Z,10.20
2019-06-26T11:27:16.827Z,9.55
2019-06-26T11:29:42.923Z,9.38
2019-06-26T11:32:09.735Z,9.48
2019-06-26T11:34:35.988Z,9.43
2019-06-26T11:37:04.305Z,6.45
2019-06-26T11:39:30.200Z,6.10
2019-06-26T11:41:56.377Z,5.83
2019-06-26T11:44:22.493Z,6.30
2019-06-26T11:46:48.617Z,5.50
2019-06-26T11:49:14.626Z,6.17
2019-06-26T11:51:40.644Z,5.70
2019-06-26T11:54:06.754Z,5.58
2019-06-26T11:56:32.858Z,5.85
2019-06-26T11:58:58.983Z,5.28
2019-06-26T12:01:25.094Z,6.22
2019-06-26T12:03:51.243Z,5.80
2019-06-26T12:06:19.102Z,4.85
2019-06-26T12:08:45.509Z,5.33
2019-06-26T12:11:11.612Z,5.92
2019-06-26T12:13:37.764Z,6.05
2019-06-26T12:16:03.862Z,5.83
2019-06-26T12:18:29.868Z,5.17
2019-06-26T12:20:55.911Z,6.42
2019-06-26T12:23:22.023Z,5.20
2019-06-26T12:25:48.042Z,5.42
2019-06-26T12:28:13.947Z,4.33
2019-06-26T12:30:40.083Z,4.85
2019-06-26T12:33:06.185Z,4.70
2019-06-26T12:35:32.353Z,5.42
2019-06-26T12:37:58.572Z,5.25
2019-06-26T12:40:24.699Z,5.28
2019-06-26T12:42:55.510Z,5.12
2019-06-26T12:45:20.319Z,6.25
2019-06-26T12:47:46.430Z,6.85
2019-06-26T12:50:13.756Z,6.25
2019-06-26T12:52:39.891Z,5.40
2019-06-26T12:55:06.957Z,6.42
2019-06-26T12:57:32.993Z,5.67
2019-06-26T12:59:59.129Z,6.50
2019-06-26T13:02:25.297Z,5.00
2019-06-26T13:04:51.408Z,5.62
2019-06-26T13:07:17.540Z,6.20
2019-06-26T13:09:43.660Z,6.60
2019-06-26T13:12:09.694Z,6.25
2019-06-26T13:14:35.809Z,5.55
2019-06-26T13:17:01.930Z,6.60
2019-06-26T13:19:28.037Z,6.00
2019-06-26T13:21:54.202Z,5.95
2019-06-26T13:24:20.333Z,6.22
2019-06-26T13:26:46.436Z,6.50
2019-06-26T13:29:12.472Z,6.17
2019-06-26T13:31:38.728Z,6.12
2019-06-26T13:34:04.758Z,6.85
2019-06-26T13:36:30.810Z,6.67
2019-06-26T13:38:56.921Z,7.62
2019-06-26T13:41:23.036Z,7.28
2019-06-26T13:43:49.046Z,7.33
2019-06-26T13:46:15.152Z,6.83
2019-06-26T13:48:41.467Z,7.20
2019-06-26T13:51:09.630Z,6.90
2019-06-26T13:53:35.629Z,7.17
2019-06-26T13:56:02.135Z,6.78
2019-06-26T13:58:29.122Z,7.28
2019-06-26T14:00:56.683Z,6.87
2019-06-26T14:03:22.869Z,7.17
2019-06-26T14:05:48.884Z,6.42
2019-06-26T14:08:14.802Z,7.62
2019-06-26T14:10:40.845Z,6.47
2019-06-26T14:13:06.947Z,6.67
2019-06-26T14:15:32.951Z,7.05
2019-06-26T14:17:59.069Z,7.15
2019-06-26T14:20:25.118Z,7.37
2019-06-26T14:22:51.131Z,6.05
2019-06-26T14:25:17.575Z,6.15
2019-06-26T14:27:43.697Z,6.90
2019-06-26T14:30:10.705Z,6.42
2019-06-26T14:32:36.834Z,6.58
2019-06-26T14:35:06.359Z,8.20
2019-06-26T14:37:32.374Z,7.67
2019-06-26T14:39:58.412Z,7.47
2019-06-26T14:42:24.524Z,7.35
2019-06-26T14:44:52.719Z,6.37
2019-06-26T14:47:18.608Z,6.90
2019-06-26T14:49:44.817Z,6.55
2019-06-26T14:52:10.926Z,6.65
2019-06-26T14:54:36.953Z,7.12
2019-06-26T14:57:02.975Z,6.70
2019-06-26T14:59:28.973Z,6.92
2019-06-26T15:01:55.094Z,6.42
2019-06-26T15:04:21.144Z,6.92
2019-06-26T15:06:47.153Z,6.75
2019-06-26T15:09:13.295Z,6.65
2019-06-26T15:11:39.443Z,6.50
2019-06-26T15:14:06.441Z,6.92
2019-06-26T15:16:32.681Z,6.70
2019-06-26T15:18:58.848Z,6.22
2019-06-26T15:21:24.949Z,6.20
2019-06-26T15:23:50.963Z,6.97
2019-06-26T15:26:17.115Z,6.55
2019-06-26T15:28:43.019Z,6.50
2019-06-26T15:31:09.188Z,7.10
2019-06-26T15:33:36.649Z,7.78
2019-06-26T15:36:03.219Z,7.03
2019-06-26T15:38:29.381Z,7.20
2019-06-26T15:40:55.429Z,6.85
2019-06-26T15:43:21.546Z,8.03
2019-06-26T15:45:47.578Z,7.55
2019-06-26T15:48:13.496Z,7.25
2019-06-26T15:50:39.440Z,7.40
2019-06-26T15:53:05.450Z,9.00
2019-06-26T15:55:31.474Z,7.67
2019-06-26T15:57:57.606Z,8.28
2019-06-26T16:00:23.713Z,8.45
2019-06-26T16:02:49.657Z,7.83
2019-06-26T16:05:15.768Z,8.33
2019-06-26T16:07:41.977Z,7.87
2019-06-26T16:10:08.085Z,8.28
2019-06-26T16:12:34.214Z,8.03
2019-06-26T16:15:00.253Z,7.70
2019-06-26T16:17:37.119Z,8.23
2019-06-26T16:20:06.367Z,8.73
2019-06-26T16:22:33.019Z,8.95
2019-06-26T16:24:59.213Z,7.53
2019-06-26T16:27:25.345Z,9.05
2019-06-26T16:29:51.356Z,8.00
2019-06-26T16:32:17.410Z,7.35
2019-06-26T16:34:43.557Z,8.13
2019-06-26T16:37:09.672Z,8.38
2019-06-26T16:39:35.684Z,8.08
2019-06-26T16:42:01.694Z,7.67
2019-06-26T16:44:27.708Z,7.80
2019-06-26T16:46:53.753Z,8.80
2019-06-26T16:49:19.770Z,8.43
2019-06-26T16:51:45.785Z,8.80
2019-06-26T16:54:11.793Z,9.18
2019-06-26T16:56:37.737Z,9.53
2019-06-26T16:59:03.839Z,9.95
2019-06-26T17:01:29.852Z,9.05
2019-06-26T17:03:55.873Z,7.97
2019-06-26T17:06:21.919Z,9.23
2019-06-26T17:08:48.825Z,9.28
2019-06-26T17:11:14.845Z,9.08
2019-06-26T17:13:40.856Z,10.58
2019-06-26T17:16:06.979Z,9.73
2019-06-26T17:18:32.979Z,9.85
2019-06-26T17:20:59.099Z,9.88
2019-06-26T17:23:25.219Z,10.48
2019-06-26T17:25:51.238Z,10.70
2019-06-26T17:28:17.379Z,9.90
2019-06-26T17:30:43.685Z,10.30
2019-06-26T17:33:09.818Z,9.95
2019-06-26T17:35:36.563Z,10.72
2019-06-26T17:38:02.686Z,10.65
2019-06-26T17:40:28.937Z,9.65
2019-06-26T17:43:08.168Z,11.38
2019-06-26T17:45:23.125Z,10.68
2019-06-26T17:47:49.311Z,11.35
2019-06-26T17:50:16.685Z,12.35
2019-06-26T17:52:42.761Z,11.50
2019-06-26T17:55:09.190Z,11.28
2019-06-26T17:57:35.197Z,11.97
2019-06-26T18:00:01.548Z,19.05
2019-06-26T18:02:27.551Z,30.55
2019-06-26T18:04:53.620Z,17.85
2019-06-26T18:07:19.715Z,17.20
2019-06-26T18:09:45.630Z,14.28
2019-06-26T18:12:11.647Z,14.47
2019-06-26T18:14:37.802Z,13.55
2019-06-26T18:17:03.985Z,13.93
2019-06-26T18:19:30.783Z,12.53
2019-06-26T18:21:56.920Z,12.85
2019-06-26T18:24:22.937Z,12.65
2019-06-26T18:26:48.959Z,12.85
2019-06-26T18:29:14.960Z,11.43
2019-06-26T18:31:40.973Z,13.18
2019-06-26T18:34:06.981Z,11.60
2019-06-26T18:36:33.764Z,11.22
2019-06-26T18:38:59.929Z,16.57
2019-06-26T18:41:26.040Z,13.20
2019-06-26T18:43:51.948Z,12.07
2019-06-26T18:46:18.068Z,12.75
2019-06-26T18:48:44.107Z,13.10
2019-06-26T18:51:10.164Z,17.92
2019-06-26T18:53:36.170Z,12.25
2019-06-26T18:56:02.319Z,12.23
2019-06-26T18:58:30.760Z,12.40
2019-06-26T19:00:56.449Z,21.60
2019-06-26T19:03:22.449Z,16.60
2019-06-26T19:05:48.570Z,12.37
2019-06-26T19:08:14.713Z,13.75
2019-06-26T19:10:41.763Z,12.00
2019-06-26T19:13:07.884Z,11.80
2019-06-26T19:15:33.996Z,11.68
2019-06-26T19:18:00.110Z,11.83
2019-06-26T19:20:26.126Z,11.20
2019-06-26T19:22:52.342Z,16.23
2019-06-26T19:25:18.451Z,12.53
2019-06-26T19:27:44.459Z,13.60
2019-06-26T19:30:10.688Z,11.08
2019-06-26T19:32:37.631Z,11.60
2019-06-26T19:35:20.171Z,18.92
2019-06-26T19:37:32.577Z,12.98
2019-06-26T19:39:58.516Z,12.43
2019-06-26T19:42:24.550Z,14.30
2019-06-26T19:44:50.613Z,14.28
2019-06-26T19:47:16.730Z,12.53
2019-06-26T19:49:42.846Z,12.45
2019-06-26T19:52:08.876Z,12.53
2019-06-26T19:54:34.999Z,12.63
2019-06-26T19:57:01.067Z,12.50
2019-06-26T19:59:27.204Z,12.07
2019-06-26T20:01:53.126Z,12.93
2019-06-26T20:04:19.289Z,12.63
2019-06-26T20:06:45.424Z,15.58
2019-06-26T20:09:11.440Z,16.10
2019-06-26T20:11:37.567Z,14.58
2019-06-26T20:14:03.690Z,14.47
2019-06-26T20:16:29.720Z,13.32
2019-06-26T20:18:55.773Z,15.93
2019-06-26T20:21:21.943Z,12.25
2019-06-26T20:23:48.059Z,12.80
2019-06-26T20:26:14.183Z,13.32
2019-06-26T20:28:40.229Z,12.40
2019-06-26T20:31:06.242Z,12.63
2019-06-26T20:33:32.354Z,12.03
2019-06-26T20:35:58.383Z,12.90
2019-06-26T20:38:24.512Z,12.40
2019-06-26T20:40:50.656Z,11.50
2019-06-26T20:43:16.752Z,12.13
2019-06-26T20:45:42.887Z,10.88
2019-06-26T20:48:08.909Z,10.75
2019-06-26T20:50:34.930Z,11.35
2019-06-26T20:53:00.941Z,12.50
2019-06-26T20:55:26.845Z,12.78
2019-06-26T20:57:52.875Z,11.90
2019-06-26T21:00:22.364Z,11.63
2019-06-26T21:02:47.071Z,12.23
2019-06-26T21:05:13.287Z,11.28
2019-06-26T21:07:39.298Z,10.88
2019-06-26T21:10:05.657Z,12.40
2019-06-26T21:12:31.572Z,11.25
2019-06-26T21:14:57.491Z,11.95
2019-06-26T21:17:25.694Z,11.03
2019-06-26T21:19:51.308Z,11.90
2019-06-26T21:22:17.216Z,11.18
2019-06-26T21:24:43.238Z,11.15
2019-06-26T21:27:09.247Z,13.32
2019-06-26T21:29:35.357Z,12.95
2019-06-26T21:32:01.263Z,11.08
2019-06-26T21:34:27.414Z,10.00
2019-06-26T21:36:53.410Z,10.95
2019-06-26T21:39:19.333Z,10.60
2019-06-26T21:41:45.410Z,10.98
2019-06-26T21:44:11.513Z,10.80
2019-06-26T21:46:37.690Z,10.72
2019-06-26T21:49:03.595Z,11.00
2019-06-26T21:51:29.727Z,10.05
2019-06-26T21:53:55.830Z,11.65
2019-06-26T21:56:21.939Z,10.93
2019-06-26T21:58:48.054Z,11.73
2019-06-26T22:01:14.183Z,11.05
2019-06-26T22:03:40.323Z,11.43
2019-06-26T22:06:06.454Z,11.03
2019-06-26T22:08:32.785Z,10.65
2019-06-26T22:10:58.924Z,11.18
2019-06-26T22:13:25.027Z,11.05
2019-06-26T22:15:51.167Z,11.10
2019-06-26T22:18:17.228Z,10.43
2019-06-26T22:20:43.353Z,12.45
2019-06-26T22:23:09.489Z,12.15
2019-06-26T22:25:49.857Z,13.90
2019-06-26T22:28:03.644Z,11.73
2019-06-26T22:30:29.754Z,11.05
2019-06-26T22:32:55.891Z,10.70
2019-06-26T22:35:22.010Z,10.90
2019-06-26T22:37:48.123Z,11.75
2019-06-26T22:40:14.337Z,11.45
2019-06-26T22:42:40.457Z,11.97
2019-06-26T22:45:07.481Z,12.58
2019-06-26T22:47:33.619Z,12.63
2019-06-26T22:49:59.737Z,10.80
2019-06-26T22:52:25.935Z,12.20
2019-06-26T22:54:52.040Z,13.68
2019-06-26T22:57:18.415Z,12.40
2019-06-26T22:59:44.529Z,11.68
2019-06-26T23:02:10.651Z,11.85
2019-06-26T23:04:36.745Z,11.50
2019-06-26T23:07:02.845Z,11.18
2019-06-26T23:09:28.853Z,11.53
2019-06-26T23:11:54.974Z,12.00
2019-06-26T23:14:21.098Z,11.88
2019-06-26T23:16:47.155Z,12.88
2019-06-26T23:19:14.977Z,11.18
2019-06-26T23:21:41.325Z,12.18
2019-06-26T23:24:07.474Z,12.40
2019-06-26T23:26:33.590Z,11.35
2019-06-26T23:28:59.719Z,11.20
2019-06-26T23:31:25.735Z,12.73
2019-06-26T23:33:51.888Z,12.33
2019-06-26T23:36:17.910Z,12.55
2019-06-26T23:38:43.930Z,12.23
2019-06-26T23:41:10.046Z,14.53
2019-06-26T23:43:36.067Z,13.05
2019-06-26T23:46:02.185Z,11.70
2019-06-26T23:48:28.296Z,11.00
2019-06-26T23:50:54.318Z,11.08
2019-06-26T23:53:20.454Z,12.28
2019-06-26T23:55:46.470Z,11.65
2019-06-26T23:58:12.605Z,11.10
